Terminal Aerodrome Forecast
Issued by NWS

Home | Current Version | Previous Version | Text Only | Print | Product List | Glossary On
Versions: 1 2 3 4 5 6 7 8 9 10 11 12 13 14 15 16 17 18 19 20 21 22 23 24 25 26 27 28 29 30 31 32 33 34 35 36 37 38 39 40 41 42 43 44 45
000
FTUS43 KMKX 132320
TAFUES
TAF
KUES 132320Z 1400/1424 30004KT P6SM SCT250
     FM141300 16005KT P6SM BKN090
     FM141600 15010KT 6SM -SN OVC035
     FM141700 15011KT 5SM -SN OVC020
     FM142000 15012KT 1SM -SN OVC010=

USA.gov is the U.S. government's official web portal to all federal, state and local government web resources and services.